To NAV CANADA Home Page Login to a new session Search on AWWS site Feedback and Comments Disclaimer Vers la page française équivalente Tips FAQ What's new on the site To the Forecasts and Observations / NOTAM section To "File a Flight Plan" website Publications and other links Update of the User's profile FIC Telephone Numbers My Weather Data Folder Route Weather Data Regional Weather Data Local Weather Data To the Forecasts and Observations / NOTAM section
Request Generated 07/25/2016 at 20:06:49 UTC . Weather information available at that time is displayed.

METAR/TAF

TALOYOAK/NU    

METAR CYYH 252000Z 22017KT 15SM VCSH FEW005 BKN017 06/04 A2981 RMK
ST1SC6 CIG RAG SLP100=
SPECI CYYH 251917Z 22016KT 15SM VCSH VCFG FEW004 FEW007 BKN017 06/05
A2979 RMK ST1CF1SC5 CIG RAG SLP092=
METAR CYYH 251900Z 22016G21KT 15SM VCSH FEW007 BKN020 06/05 A2979 RMK
CF2SC4 CIG RAG SLP092=
METAR CYYH 251800Z 21014KT 15SM VCSH FEW008 FEW010 BKN020 06/04 A2977
RMK CF1ST1SC5 CIG RAG SLP085=

TAF CYYH 251738Z 2518/2606 22015KT P6SM FEW008 BKN025 TEMPO 2518/2606
FEW008 BKN015
RMK NXT FCST BY 260000Z=
Your time UTC time
Weather data provided by Environment Canada and NAV CANADA